Time;durP1;ratioP1;P1;durP2;ratioP2;P2;SDS_P1;SDS_P2;PMS_P1;PMS_P2;Temp;Humidity;BMP_temperature;BMP_pressure;BME280_temperature;BME280_humidity;BME280_pressure;Samples;Min_cycle;Max_cycle;Signal;HPM_P1;HPM_P2
2022/12/07 00:01:22;;;;;;;15.82;12.00;;;19.80;44.20;;;;;;5011795;28;20053;-62
2022/12/07 00:03:52;;;;;;;16.90;11.63;;;19.80;44.20;;;;;;5030059;28;20050;-62
2022/12/07 00:06:20;;;;;;;16.98;12.32;;;19.80;44.20;;;;;;5027658;28;20057;-61
2022/12/07 00:08:48;;;;;;;17.38;11.70;;;19.80;44.20;;;;;;5029511;28;20045;-62
2022/12/07 00:11:20;;;;;;;16.35;11.52;;;19.80;44.20;;;;;;5028764;28;20049;-62
2022/12/07 00:13:51;;;;;;;14.32;10.25;;;19.80;44.20;;;;;;5028602;28;20493;-62
2022/12/07 00:16:20;;;;;;;15.52;10.55;;;19.70;44.10;;;;;;5029516;28;20052;-62
2022/12/07 00:18:48;;;;;;;15.10;11.63;;;19.70;44.10;;;;;;5028746;28;20056;-62
2022/12/07 00:21:24;;;;;;;16.30;10.80;;;19.70;44.10;;;;;;5029201;28;20038;-62
2022/12/07 00:23:52;;;;;;;17.63;11.55;;;19.70;44.00;;;;;;5028997;28;20057;-62
2022/12/07 00:26:32;;;;;;;18.33;11.48;;;19.80;44.00;;;;;;5027991;28;20317;-62
2022/12/07 00:29:02;;;;;;;16.40;11.43;;;19.80;43.90;;;;;;5027678;28;20067;-62
2022/12/07 00:31:33;;;;;;;15.40;10.68;;;19.80;43.90;;;;;;5025855;28;20056;-62
2022/12/07 00:34:01;;;;;;;15.10;11.10;;;19.80;43.90;;;;;;5029219;28;20041;-62
2022/12/07 00:36:28;;;;;;;16.17;10.98;;;19.80;43.80;;;;;;5028332;28;20265;-62
2022/12/07 00:38:58;;;;;;;14.20;10.35;;;19.80;43.80;;;;;;5028644;28;20513;-62
2022/12/07 00:41:27;;;;;;;15.57;11.60;;;19.80;43.80;;;;;;5027531;28;20289;-62
2022/12/07 00:43:54;;;;;;;15.57;11.07;;;19.80;43.80;;;;;;5028289;28;20513;-62
2022/12/07 00:46:23;;;;;;;15.27;11.00;;;19.80;43.80;;;;;;5028812;28;20049;-62
2022/12/07 00:48:51;;;;;;;14.85;11.20;;;19.80;43.70;;;;;;5028232;28;20311;-62
2022/12/07 00:51:20;;;;;;;14.95;11.00;;;19.70;43.70;;;;;;5028518;28;20052;-62
2022/12/07 00:53:48;;;;;;;14.45;10.25;;;19.80;43.70;;;;;;5028153;28;20052;-62
2022/12/07 00:56:21;;;;;;;13.00;10.13;;;19.70;43.70;;;;;;5028321;28;20050;-62
2022/12/07 00:58:57;;;;;;;13.73;10.25;;;19.70;43.70;;;;;;5028750;28;20045;-61
2022/12/07 01:01:28;;;;;;;13.38;9.75;;;19.70;43.70;;;;;;5028082;28;20141;-62
2022/12/07 01:03:56;;;;;;;15.35;10.77;;;19.70;43.60;;;;;;5027170;28;20461;-62
2022/12/07 01:06:24;;;;;;;14.68;9.82;;;19.70;43.60;;;;;;5027620;28;20081;-62
2022/12/07 01:08:52;;;;;;;13.20;9.52;;;19.70;43.60;;;;;;5027115;28;20049;-63
2022/12/07 01:11:22;;;;;;;15.05;10.35;;;19.70;43.60;;;;;;5027192;28;20041;-62
2022/12/07 01:13:53;;;;;;;13.57;9.35;;;19.70;43.60;;;;;;5023466;28;20052;-62
2022/12/07 01:16:21;;;;;;;14.23;10.30;;;19.70;43.60;;;;;;5028397;28;20494;-62
2022/12/07 01:18:52;;;;;;;15.30;9.98;;;19.70;43.60;;;;;;5027690;28;20114;-61
2022/12/07 01:21:29;;;;;;;14.82;10.88;;;19.70;43.60;;;;;;5027981;28;20041;-62
2022/12/07 01:23:57;;;;;;;14.30;10.60;;;19.70;43.60;;;;;;5026682;28;20052;-62
2022/12/07 01:26:26;;;;;;;15.65;10.85;;;19.70;43.60;;;;;;5027007;28;20049;-62
2022/12/07 01:28:54;;;;;;;14.02;10.30;;;19.70;43.60;;;;;;5028342;28;20076;-62
2022/12/07 01:31:24;;;;;;;14.98;10.70;;;19.70;43.60;;;;;;5027495;28;20045;-62
2022/12/07 01:33:54;;;;;;;10.90;8.73;;;19.70;43.50;;;;;;5027105;28;20088;-62
2022/12/07 01:36:25;;;;;;;14.35;10.05;;;19.70;43.50;;;;;;5027886;28;20405;-62
2022/12/07 01:38:56;;;;;;;13.07;9.63;;;19.70;43.50;;;;;;5028230;28;20056;-62
2022/12/07 01:41:26;;;;;;;14.38;9.80;;;19.70;43.50;;;;;;5028166;28;20051;-61
2022/12/07 01:44:22;;;;;;;14.32;9.80;;;19.70;44.10;;;;;;5026657;28;20054;-62
2022/12/07 01:46:55;;;;;;;12.77;9.35;;;19.70;43.50;;;;;;5028019;28;20045;-61
2022/12/07 01:49:46;;;;;;;13.85;9.00;;;19.70;43.50;;;;;;5026227;28;20052;-62
2022/12/07 01:52:27;;;;;;;14.48;8.80;;;19.70;43.50;;;;;;5028403;28;20053;-62
2022/12/07 01:55:00;;;;;;;14.88;9.43;;;19.70;43.50;;;;;;5025762;28;20504;-62
2022/12/07 01:57:27;;;;;;;12.15;9.18;;;19.70;43.50;;;;;;5024701;28;20052;-62
2022/12/07 01:59:56;;;;;;;13.20;9.23;;;19.70;43.50;;;;;;5027619;28;20046;-61
2022/12/07 02:02:30;;;;;;;14.10;10.50;;;19.70;43.50;;;;;;5027445;28;20052;-62
2022/12/07 02:05:00;;;;;;;11.93;8.88;;;19.70;43.40;;;;;;5026764;28;20336;-62
2022/12/07 02:07:28;;;;;;;12.40;8.50;;;19.70;43.40;;;;;;5027353;28;20054;-62
2022/12/07 02:09:56;;;;;;;13.45;9.15;;;19.70;43.40;;;;;;5026531;28;20064;-62
2022/12/07 02:12:24;;;;;;;11.35;8.25;;;19.70;43.40;;;;;;5027397;28;20124;-62
2022/12/07 02:14:52;;;;;;;12.23;8.77;;;19.70;43.50;;;;;;5027306;28;20086;-61
2022/12/07 02:17:36;;;;;;;12.27;8.07;;;19.70;43.50;;;;;;5027778;28;20046;-62
2022/12/07 02:20:29;;;;;;;12.20;9.10;;;19.70;43.50;;;;;;5027270;28;20052;-62
2022/12/07 02:23:36;;;;;;;12.20;9.10;;;19.70;43.40;;;;;;5027977;28;20080;-61
2022/12/07 02:26:35;;;;;;;13.50;9.73;;;19.70;43.40;;;;;;5026902;28;20045;-62
2022/12/07 02:29:22;;;;;;;11.60;7.65;;;19.60;43.40;;;;;;5027860;28;20405;-62
2022/12/07 02:32:14;;;;;;;12.27;8.02;;;19.60;43.40;;;;;;5026734;28;20441;-62
2022/12/07 02:34:56;;;;;;;12.00;8.57;;;19.60;43.40;;;;;;5028145;28;20405;-62
2022/12/07 02:37:40;;;;;;;10.90;8.00;;;19.60;43.40;;;;;;5029444;28;20050;-62
2022/12/07 02:40:18;;;;;;;10.52;8.02;;;19.60;43.40;;;;;;5026841;28;20445;-62
2022/12/07 02:42:55;;;;;;;12.38;9.10;;;19.60;43.30;;;;;;5030634;28;20045;-61
2022/12/07 02:45:24;;;;;;;13.07;8.77;;;19.70;43.30;;;;;;5029348;28;20053;-62
2022/12/07 02:47:55;;;;;;;11.20;8.10;;;19.70;43.20;;;;;;5030954;28;20204;-61
2022/12/07 02:50:22;;;;;;;10.85;7.63;;;19.70;43.10;;;;;;5030667;28;20072;-62
2022/12/07 02:52:49;;;;;;;9.52;7.78;;;19.70;43.10;;;;;;5030335;28;20052;-62
2022/12/07 02:55:23;;;;;;;12.50;8.55;;;19.70;43.10;;;;;;5030482;28;20049;-62
2022/12/07 02:58:11;;;;;;;12.30;7.53;;;19.70;43.00;;;;;;5030264;28;20064;-62
2022/12/07 03:00:58;;;;;;;11.30;7.97;;;19.70;43.00;;;;;;5029242;28;20052;-62
2022/12/07 03:03:26;;;;;;;12.15;8.07;;;19.70;43.00;;;;;;5030101;28;20060;-62
2022/12/07 03:06:11;;;;;;;9.57;7.65;;;19.70;43.00;;;;;;5029288;28;20049;-62
2022/12/07 03:09:01;;;;;;;11.27;7.53;;;19.70;43.00;;;;;;5028431;28;20061;-61
2022/12/07 03:11:39;;;;;;;10.52;7.38;;;19.70;43.00;;;;;;5030584;28;20398;-62
2022/12/07 03:14:21;;;;;;;11.05;8.15;;;19.70;43.00;;;;;;5026083;28;20045;-62
2022/12/07 03:17:00;;;;;;;9.93;7.90;;;19.70;43.00;;;;;;5029293;28;20604;-62
2022/12/07 03:19:27;;;;;;;10.55;7.65;;;19.70;43.00;;;;;;5030102;28;20057;-62
2022/12/07 03:22:02;;;;;;;11.70;8.00;;;19.60;42.90;;;;;;5030355;28;20056;-62
2022/12/07 03:24:36;;;;;;;10.07;7.03;;;19.70;43.00;;;;;;5029268;28;20049;-62
2022/12/07 03:27:16;;;;;;;9.52;7.00;;;19.70;43.00;;;;;;5028930;28;20049;-61
2022/12/07 03:29:53;;;;;;;11.20;7.18;;;19.70;43.00;;;;;;5030351;28;20057;-61
2022/12/07 03:32:30;;;;;;;10.52;7.28;;;19.70;43.00;;;;;;5029953;28;20049;-62
2022/12/07 03:35:06;;;;;;;11.48;7.97;;;19.70;43.00;;;;;;5028734;28;20057;-62
2022/12/07 03:38:12;;;;;;;10.25;7.72;;;19.70;42.90;;;;;;5029721;28;20292;-62
2022/12/07 03:41:07;;;;;;;8.70;7.03;;;19.70;43.00;;;;;;5029153;28;20631;-62
2022/12/07 03:43:35;;;;;;;11.00;7.25;;;19.60;42.90;;;;;;5028876;28;20049;-62
2022/12/07 03:46:25;;;;;;;11.02;7.40;;;19.60;42.90;;;;;;5029059;28;20056;-62
2022/12/07 03:49:13;;;;;;;9.25;7.07;;;19.70;43.00;;;;;;5026731;28;20061;-61
2022/12/07 03:51:57;;;;;;;9.20;7.00;;;19.60;42.90;;;;;;5026918;28;20527;-62
2022/12/07 03:54:33;;;;;;;10.80;7.13;;;19.60;42.90;;;;;;5029337;28;20053;-62
2022/12/07 03:57:02;;;;;;;9.60;6.88;;;19.60;42.80;;;;;;5028625;28;20060;-62
2022/12/07 03:59:30;;;;;;;10.15;7.28;;;19.60;42.90;;;;;;5028972;28;20502;-62
2022/12/07 04:02:02;;;;;;;10.00;7.28;;;19.60;42.80;;;;;;5029097;28;20050;-62
2022/12/07 04:04:30;;;;;;;9.82;7.50;;;19.60;42.80;;;;;;5029121;28;20148;-62
2022/12/07 04:06:57;;;;;;;8.73;6.22;;;19.60;42.80;;;;;;5028667;28;20049;-62
2022/12/07 04:09:24;;;;;;;9.32;6.95;;;19.60;42.80;;;;;;5028238;28;20049;-62
2022/12/07 04:11:51;;;;;;;10.55;7.43;;;19.60;42.80;;;;;;5029362;28;20353;-62
2022/12/07 04:14:18;;;;;;;8.90;6.60;;;19.60;42.80;;;;;;5029028;28;20041;-62
2022/12/07 04:16:56;;;;;;;10.02;7.55;;;19.60;42.80;;;;;;5028304;28;20412;-62
2022/12/07 04:19:26;;;;;;;10.77;7.47;;;19.60;42.80;;;;;;5028445;28;20049;-62
2022/12/07 04:21:54;;;;;;;9.38;6.82;;;19.60;42.80;;;;;;5027708;28;20406;-61
2022/12/07 04:24:21;;;;;;;8.95;6.22;;;19.60;42.70;;;;;;5025225;28;20046;-62
2022/12/07 04:26:48;;;;;;;10.38;7.13;;;19.60;42.70;;;;;;5028544;28;20046;-61
2022/12/07 04:29:16;;;;;;;8.02;5.93;;;19.60;42.70;;;;;;5042150;28;20520;-62
2022/12/07 04:31:44;;;;;;;8.77;6.72;;;19.60;42.70;;;;;;5038105;28;20462;-61
2022/12/07 04:34:12;;;;;;;8.88;6.55;;;19.60;42.80;;;;;;5028514;28;20081;-62
2022/12/07 04:36:40;;;;;;;8.02;6.25;;;19.60;42.80;;;;;;5027927;28;20140;-61
2022/12/07 04:39:13;;;;;;;7.63;6.03;;;19.60;42.80;;;;;;5028218;28;20394;-62
2022/12/07 04:41:40;;;;;;;8.40;6.45;;;19.60;42.80;;;;;;5028718;28;20348;-61
2022/12/07 04:44:08;;;;;;;7.78;6.00;;;19.60;42.80;;;;;;5028022;28;20486;-62
2022/12/07 04:46:35;;;;;;;7.28;5.78;;;19.60;42.80;;;;;;5027908;28;20054;-62
2022/12/07 04:49:02;;;;;;;9.02;6.65;;;19.60;42.80;;;;;;5028794;28;20052;-61
2022/12/07 04:51:29;;;;;;;7.07;5.80;;;19.60;42.80;;;;;;5027968;28;20053;-62
2022/12/07 04:53:56;;;;;;;7.78;6.25;;;19.60;42.80;;;;;;5028395;28;20520;-62
2022/12/07 04:56:24;;;;;;;11.32;7.38;;;19.60;43.30;;;;;;5023444;28;20506;-61
2022/12/07 04:58:53;;;;;;;7.47;6.20;;;19.50;42.70;;;;;;5028269;28;20053;-62
2022/12/07 05:01:21;;;;;;;7.47;5.68;;;19.60;42.70;;;;;;5028138;28;20755;-62
2022/12/07 05:03:49;;;;;;;6.93;5.57;;;19.60;42.70;;;;;;5027135;28;20049;-62
2022/12/07 05:06:16;;;;;;;8.90;5.82;;;19.60;42.60;;;;;;5028159;28;20092;-61
2022/12/07 05:08:44;;;;;;;9.00;6.88;;;19.60;42.60;;;;;;5027925;28;20049;-62
2022/12/07 05:13:59;;;;;;;6.88;5.50;;;19.60;42.50;;;;;;5028005;28;20419;-62
2022/12/07 05:16:27;;;;;;;8.18;5.82;;;19.60;42.50;;;;;;5026730;28;20044;-61
2022/12/07 05:18:54;;;;;;;8.60;6.60;;;19.60;42.50;;;;;;5027918;28;20041;-62
2022/12/07 05:21:21;;;;;;;7.65;5.70;;;19.60;42.50;;;;;;5028262;28;20038;-62
2022/12/07 05:23:48;;;;;;;7.90;5.65;;;19.60;42.40;;;;;;5034622;28;20379;-62
2022/12/07 05:26:15;;;;;;;7.35;5.72;;;19.60;42.40;;;;;;5029365;28;20410;-62
2022/12/07 05:28:43;;;;;;;8.02;5.95;;;19.60;42.40;;;;;;5027295;28;20049;-61
2022/12/07 05:31:10;;;;;;;6.50;4.88;;;19.60;42.40;;;;;;5022852;28;20049;-62
2022/12/07 05:33:37;;;;;;;7.63;6.10;;;19.60;42.40;;;;;;5027036;28;20045;-62
2022/12/07 05:36:05;;;;;;;8.23;5.82;;;19.60;42.30;;;;;;5027351;28;20062;-61
2022/12/07 05:38:33;;;;;;;9.23;6.63;;;19.60;42.20;;;;;;5027670;28;20049;-61
2022/12/07 05:41:05;;;;;;;9.57;6.78;;;19.60;42.00;;;;;;5027476;28;20063;-62
2022/12/07 05:43:32;;;;;;;7.85;6.10;;;19.60;41.80;;;;;;5027975;28;20053;-61
2022/12/07 05:46:00;;;;;;;8.55;6.07;;;19.60;41.70;;;;;;5027590;28;20064;-62
2022/12/07 05:48:27;;;;;;;7.97;5.93;;;19.70;41.70;;;;;;5027374;28;20052;-61
2022/12/07 05:50:54;;;;;;;6.45;5.22;;;19.70;41.60;;;;;;5026446;28;20495;-62
2022/12/07 05:53:21;;;;;;;6.85;5.22;;;19.70;41.60;;;;;;5027994;28;20054;-61
2022/12/07 05:55:49;;;;;;;7.38;5.28;;;19.60;41.60;;;;;;5026865;28;20045;-62
2022/12/07 06:01:03;;;;;;;8.00;6.00;;;19.60;41.80;;;;;;5021757;28;20042;-61
2022/12/07 06:03:30;;;;;;;5.90;5.28;;;19.60;41.80;;;;;;5023826;28;20052;-61
2022/12/07 06:05:57;;;;;;;9.48;6.40;;;19.50;41.70;;;;;;5022306;28;20212;-61
2022/12/07 06:08:24;;;;;;;7.72;5.82;;;19.50;41.70;;;;;;5058865;28;20103;-61
2022/12/07 06:12:33;;;;;;;9.20;6.32;;;19.50;41.70;;;;;;5025498;28;20044;-62
2022/12/07 06:13:38;;;;;;;6.95;5.63;;;19.50;41.70;;;;;;5028985;28;20414;-61
2022/12/07 06:16:13;;;;;;;6.97;5.40;;;19.50;41.70;;;;;;5029312;28;20077;-61
2022/12/07 06:18:40;;;;;;;7.15;5.50;;;19.50;41.70;;;;;;5030183;28;20156;-61
2022/12/07 06:21:07;;;;;;;7.88;5.95;;;19.50;41.60;;;;;;5029691;28;20038;-61
2022/12/07 06:23:34;;;;;;;7.05;5.63;;;19.50;41.70;;;;;;5029788;28;20494;-59
2022/12/07 06:26:01;;;;;;;9.60;6.05;;;19.50;41.80;;;;;;5026550;28;20059;-60
2022/12/07 06:28:28;;;;;;;8.07;6.50;;;19.50;41.90;;;;;;5024563;28;20053;-59
2022/12/07 06:31:00;;;;;;;7.93;6.38;;;19.50;42.00;;;;;;5020750;28;20054;-59
2022/12/07 06:33:28;;;;;;;8.13;6.20;;;19.50;42.10;;;;;;5021756;28;20497;-59
2022/12/07 06:35:55;;;;;;;8.60;6.43;;;19.60;42.20;;;;;;5023809;28;20057;-60
2022/12/07 06:38:22;;;;;;;7.13;5.95;;;19.60;42.20;;;;;;5024217;28;20050;-61
2022/12/07 06:40:49;;;;;;;8.27;6.15;;;19.60;42.10;;;;;;5025385;28;20056;-61
2022/12/07 06:43:16;;;;;;;7.13;6.10;;;19.60;42.20;;;;;;5027852;28;20067;-60
2022/12/07 06:45:43;;;;;;;7.57;5.85;;;19.60;42.20;;;;;;5026044;28;20065;-60
2022/12/07 06:48:10;;;;;;;7.07;5.78;;;19.70;42.30;;;;;;5023447;28;20049;-58
2022/12/07 06:50:37;;;;;;;9.23;6.03;;;19.70;42.30;;;;;;5020003;28;20502;-60
2022/12/07 06:53:05;;;;;;;11.38;6.70;;;19.70;42.30;;;;;;5021671;28;20053;-60
2022/12/07 06:55:32;;;;;;;8.25;5.93;;;19.60;42.00;;;;;;5025241;28;20065;-60
2022/12/07 06:58:01;;;;;;;10.25;5.68;;;19.70;41.90;;;;;;5025625;28;20056;-61
2022/12/07 07:00:29;;;;;;;6.18;5.57;;;19.70;41.80;;;;;;5049779;28;20050;-61
2022/12/07 07:02:56;;;;;;;12.63;6.00;;;19.70;41.70;;;;;;5021532;28;20373;-61
2022/12/07 07:05:23;;;;;;;8.07;5.82;;;19.70;41.60;;;;;;5023807;28;20060;-60
2022/12/07 07:07:51;;;;;;;6.80;5.75;;;19.80;41.60;;;;;;5024721;28;20516;-62
2022/12/07 07:10:38;;;;;;;6.72;5.82;;;19.80;41.50;;;;;;5025017;28;20052;-60
2022/12/07 07:13:05;;;;;;;18.15;5.95;;;19.80;41.60;;;;;;5024311;28;20052;-61
2022/12/07 07:15:33;;;;;;;8.20;5.60;;;19.80;41.60;;;;;;5023138;28;20950;-60
2022/12/07 07:18:01;;;;;;;6.82;4.95;;;19.80;41.70;;;;;;5023203;28;20502;-61
2022/12/07 07:20:33;;;;;;;5.47;4.53;;;19.80;41.80;;;;;;5018854;28;20061;-62
2022/12/07 07:23:01;;;;;;;7.78;5.05;;;19.90;41.90;;;;;;5020738;28;20049;-62
2022/12/07 07:25:28;;;;;;;7.65;4.90;;;19.90;42.30;;;;;;5021450;28;20521;-62
2022/12/07 07:27:55;;;;;;;8.35;4.90;;;19.90;42.60;;;;;;5018127;28;20104;-60
2022/12/07 07:30:22;;;;;;;8.48;4.70;;;20.00;42.80;;;;;;5022236;28;20405;-60
2022/12/07 07:32:50;;;;;;;8.23;4.40;;;20.00;42.90;;;;;;5027883;28;20053;-61
2022/12/07 07:35:17;;;;;;;9.60;5.00;;;20.10;43.10;;;;;;5025000;28;20041;-60
2022/12/07 07:37:44;;;;;;;5.88;4.35;;;20.10;43.10;;;;;;5023211;28;20054;-60
2022/12/07 07:40:11;;;;;;;5.68;4.55;;;20.20;43.00;;;;;;5024351;28;20142;-65
2022/12/07 07:42:38;;;;;;;6.32;4.50;;;20.20;43.00;;;;;;5024394;28;20046;-61
2022/12/07 07:45:06;;;;;;;4.43;4.03;;;20.30;43.10;;;;;;5021548;28;20061;-61
2022/12/07 07:47:33;;;;;;;4.50;4.10;;;20.30;42.90;;;;;;5024851;28;20046;-61
2022/12/07 07:50:00;;;;;;;10.40;5.13;;;20.40;42.90;;;;;;5020443;28;20053;-62
2022/12/07 07:52:28;;;;;;;9.77;4.20;;;20.40;42.90;;;;;;5020574;28;20053;-61
2022/12/07 07:54:55;;;;;;;4.85;4.38;;;20.50;42.90;;;;;;5005972;28;20060;-61
2022/12/07 07:57:22;;;;;;;6.68;4.82;;;20.50;42.80;;;;;;5022647;28;20045;-62
2022/12/07 07:59:49;;;;;;;7.07;4.20;;;20.50;42.70;;;;;;5017581;28;20076;-61
2022/12/07 08:02:19;;;;;;;5.53;4.68;;;20.50;42.80;;;;;;5018781;28;20485;-65
2022/12/07 08:04:47;;;;;;;7.70;4.30;;;20.60;42.80;;;;;;5026364;28;20505;-62
2022/12/07 08:07:15;;;;;;;5.10;4.38;;;20.60;42.80;;;;;;5021468;28;20049;-64
2022/12/07 08:09:42;;;;;;;5.80;4.15;;;20.60;42.80;;;;;;5020776;28;20053;-63
2022/12/07 08:12:10;;;;;;;6.47;4.15;;;20.60;42.60;;;;;;5018301;28;20570;-63
2022/12/07 08:14:37;;;;;;;5.97;4.20;;;20.70;42.40;;;;;;5013572;28;20058;-64
2022/12/07 08:17:04;;;;;;;7.90;4.65;;;20.70;42.40;;;;;;5008998;28;20053;-64
2022/12/07 08:19:31;;;;;;;4.13;3.72;;;20.70;42.30;;;;;;5011525;28;20053;-62
2022/12/07 08:21:58;;;;;;;5.50;4.00;;;20.80;42.30;;;;;;5009236;28;20524;-67
2022/12/07 08:24:26;;;;;;;5.60;4.72;;;20.70;42.20;;;;;;5015047;28;20071;-63
2022/12/07 08:26:53;;;;;;;4.95;4.28;;;20.80;42.00;;;;;;5010472;28;20049;-64
2022/12/07 08:29:21;;;;;;;5.25;4.03;;;20.80;41.90;;;;;;5014137;28;21004;-62
2022/12/07 08:31:48;;;;;;;6.80;4.28;;;20.80;41.90;;;;;;5010790;28;20493;-64
2022/12/07 08:34:15;;;;;;;4.78;4.22;;;20.90;41.90;;;;;;5009382;28;20058;-64
2022/12/07 08:36:42;;;;;;;5.80;4.22;;;20.80;41.80;;;;;;5018531;28;20417;-60
2022/12/07 08:39:10;;;;;;;5.15;4.65;;;20.90;41.90;;;;;;5006331;28;20083;-62
2022/12/07 08:41:57;;;;;;;5.10;4.20;;;20.90;41.90;;;;;;5010506;28;20049;-65
2022/12/07 08:44:24;;;;;;;6.18;4.00;;;20.90;41.90;;;;;;5013503;28;20050;-64
2022/12/07 08:46:58;;;;;;;6.30;4.28;;;21.00;41.80;;;;;;5009940;28;20058;-65
2022/12/07 08:49:39;;;;;;;5.10;4.07;;;21.00;41.80;;;;;;5009793;28;20057;-62
2022/12/07 08:52:06;;;;;;;8.70;4.07;;;21.00;41.90;;;;;;5019621;28;20053;-62
2022/12/07 08:54:38;;;;;;;5.78;4.40;;;21.00;41.80;;;;;;5018697;28;20049;-61
2022/12/07 08:57:06;;;;;;;4.22;3.30;;;21.00;42.40;;;;;;5021896;28;20050;-65
2022/12/07 08:59:35;;;;;;;4.70;4.20;;;21.00;41.90;;;;;;5023606;28;20049;-66
2022/12/07 09:02:02;;;;;;;6.00;4.03;;;21.10;42.00;;;;;;5023465;28;20053;-64
2022/12/07 09:04:29;;;;;;;7.15;4.13;;;21.10;41.90;;;;;;5024709;28;20053;-64
2022/12/07 09:06:56;;;;;;;4.72;4.30;;;21.10;42.10;;;;;;5022008;28;20056;-65
2022/12/07 09:09:24;;;;;;;5.80;4.93;;;21.20;42.00;;;;;;5021449;28;20549;-63
2022/12/07 09:11:51;;;;;;;6.35;4.40;;;21.20;41.80;;;;;;5019807;28;20041;-63
2022/12/07 09:14:19;;;;;;;7.75;4.10;;;21.20;41.70;;;;;;5019862;28;20520;-64
2022/12/07 09:16:46;;;;;;;8.68;4.05;;;21.30;41.70;;;;;;5019842;28;20060;-63
2022/12/07 09:19:13;;;;;;;5.10;4.43;;;21.30;41.60;;;;;;5019945;28;20057;-64
2022/12/07 09:21:41;;;;;;;5.90;4.63;;;21.30;41.50;;;;;;5019166;28;20046;-64
2022/12/07 09:24:09;;;;;;;4.75;3.95;;;21.40;41.40;;;;;;5021355;28;20052;-66
2022/12/07 09:26:36;;;;;;;6.25;5.00;;;21.40;41.40;;;;;;5018507;28;20049;-62
2022/12/07 09:29:03;;;;;;;6.10;3.92;;;21.40;41.20;;;;;;5015891;28;20477;-63
2022/12/07 09:31:30;;;;;;;7.20;4.38;;;21.40;41.10;;;;;;5017566;28;20049;-62
2022/12/07 09:34:00;;;;;;;6.20;4.75;;;21.50;41.00;;;;;;5016624;28;20045;-62
2022/12/07 09:36:28;;;;;;;7.50;4.65;;;21.50;41.00;;;;;;5024186;28;20107;-65
2022/12/07 09:38:56;;;;;;;7.70;6.07;;;21.50;41.00;;;;;;5021641;28;20135;-64
2022/12/07 09:41:25;;;;;;;7.80;5.80;;;21.60;41.00;;;;;;5023406;28;20076;-64
2022/12/07 09:43:57;;;;;;;8.02;5.90;;;21.60;40.90;;;;;;5023377;28;20073;-64
2022/12/07 09:46:25;;;;;;;6.60;5.22;;;21.60;40.90;;;;;;5021361;28;20049;-62
2022/12/07 09:48:52;;;;;;;9.05;6.22;;;21.70;40.90;;;;;;5025568;28;20054;-62
2022/12/07 09:51:22;;;;;;;6.75;5.75;;;21.70;40.80;;;;;;5026782;28;20042;-63
2022/12/07 09:53:54;;;;;;;8.38;5.88;;;21.70;40.70;;;;;;5022718;28;20126;-61
2022/12/07 09:56:23;;;;;;;9.15;5.97;;;21.70;40.70;;;;;;5054434;28;20057;-63
2022/12/07 09:58:59;;;;;;;10.40;5.90;;;21.80;40.60;;;;;;5041964;28;20137;-64
2022/12/07 10:01:30;;;;;;;8.10;5.82;;;21.80;40.60;;;;;;5021790;28;20057;-64
2022/12/07 10:04:16;;;;;;;12.65;6.25;;;21.80;40.50;;;;;;5017723;28;20061;-63
2022/12/07 10:06:43;;;;;;;8.52;5.82;;;21.90;40.60;;;;;;5022567;28;20057;-63
2022/12/07 10:09:16;;;;;;;7.43;6.10;;;21.90;40.50;;;;;;5024249;28;20049;-63
2022/12/07 10:12:09;;;;;;;6.65;5.75;;;21.90;40.40;;;;;;5025413;28;20049;-62
2022/12/07 10:14:40;;;;;;;6.60;5.65;;;21.90;40.40;;;;;;5025144;28;20121;-65
2022/12/07 10:17:40;;;;;;;6.53;5.57;;;22.00;40.50;;;;;;5020951;28;20464;-67
2022/12/07 10:20:18;;;;;;;6.47;5.78;;;22.00;40.50;;;;;;5024806;28;20049;-64
2022/12/07 10:23:02;;;;;;;6.63;5.90;;;22.00;40.50;;;;;;5026295;28;20052;-62
2022/12/07 10:25:35;;;;;;;6.45;5.72;;;22.00;40.40;;;;;;5025391;28;20049;-73
2022/12/07 10:28:13;;;;;;;7.43;6.05;;;22.00;40.40;;;;;;5026548;28;20060;-62
2022/12/07 10:30:52;;;;;;;7.53;5.57;;;22.10;40.40;;;;;;5021575;28;20050;-62
2022/12/07 10:33:33;;;;;;;8.07;5.47;;;22.00;40.30;;;;;;5022713;28;20120;-63
2022/12/07 10:36:16;;;;;;;6.57;5.47;;;22.10;40.30;;;;;;5021349;28;20041;-63
2022/12/07 10:39:04;;;;;;;7.82;5.60;;;22.10;40.20;;;;;;5025221;28;20053;-66
2022/12/07 10:41:31;;;;;;;8.13;5.70;;;22.10;40.20;;;;;;5025612;28;20422;-62
2022/12/07 10:43:58;;;;;;;6.47;5.35;;;22.20;40.20;;;;;;5023527;28;20088;-62
2022/12/07 10:47:03;;;;;;;7.22;5.68;;;22.20;40.20;;;;;;5022592;28;20057;-64
2022/12/07 10:50:07;;;;;;;9.32;6.10;;;22.20;40.20;;;;;;5024958;28;20053;-62
2022/12/07 10:53:00;;;;;;;12.43;6.72;;;22.20;40.10;;;;;;5026678;28;20049;-67
2022/12/07 10:56:03;;;;;;;10.52;6.00;;;22.20;40.00;;;;;;5024778;28;20053;-65
2022/12/07 10:58:56;;;;;;;9.30;6.95;;;22.30;40.10;;;;;;5034361;28;20049;-67
2022/12/07 11:01:51;;;;;;;12.52;6.35;;;22.30;40.00;;;;;;5006966;28;20049;-63
2022/12/07 11:04:47;;;;;;;6.95;5.70;;;22.40;40.10;;;;;;5023297;28;20049;-71
2022/12/07 11:07:37;;;;;;;8.10;5.93;;;22.30;39.90;;;;;;5021800;28;20399;-63
2022/12/07 11:10:22;;;;;;;8.27;6.25;;;22.40;40.00;;;;;;5024378;28;20150;-64
2022/12/07 11:13:29;;;;;;;8.10;6.10;;;22.40;40.10;;;;;;5024438;28;20042;-65
2022/12/07 11:16:22;;;;;;;10.73;7.20;;;22.40;39.90;;;;;;5023613;28;20056;-66
2022/12/07 11:19:10;;;;;;;10.18;7.03;;;22.40;39.70;;;;;;5025488;28;20076;-63
2022/12/07 11:21:55;;;;;;;13.88;6.97;;;22.40;39.50;;;;;;5021299;28;20059;-65
2022/12/07 11:24:51;;;;;;;12.88;7.82;;;22.50;39.50;;;;;;5020685;28;20049;-63
2022/12/07 11:27:31;;;;;;;10.27;7.25;;;22.50;39.30;;;;;;5024530;28;20092;-61
2022/12/07 11:30:20;;;;;;;12.80;8.00;;;22.50;39.30;;;;;;5023224;28;20049;-62
2022/12/07 11:33:20;;;;;;;11.27;7.63;;;22.40;39.20;;;;;;5021761;28;20527;-61
2022/12/07 11:36:07;;;;;;;11.73;7.55;;;22.40;39.20;;;;;;5017680;28;20042;-62
2022/12/07 11:38:53;;;;;;;10.13;7.07;;;22.40;39.30;;;;;;5021553;28;20053;-63
2022/12/07 11:41:27;;;;;;;12.50;7.15;;;22.40;39.30;;;;;;5017394;28;20045;-63
2022/12/07 11:44:04;;;;;;;9.23;6.70;;;22.40;39.40;;;;;;5018769;28;20550;-62
2022/12/07 11:46:50;;;;;;;10.23;6.72;;;22.40;39.40;;;;;;5022393;28;20060;-63
2022/12/07 11:49:37;;;;;;;11.75;7.72;;;22.40;39.60;;;;;;5024840;28;20057;-63
2022/12/07 11:52:11;;;;;;;10.85;7.10;;;22.40;39.60;;;;;;5018030;28;20041;-62
2022/12/07 11:54:43;;;;;;;10.60;7.60;;;22.40;39.70;;;;;;5023134;28;20046;-63
2022/12/07 11:57:22;;;;;;;11.55;8.18;;;22.40;39.70;;;;;;5023790;28;20048;-63
2022/12/07 11:59:54;;;;;;;12.02;7.93;;;22.40;39.80;;;;;;5023752;28;20041;-62
2022/12/07 12:02:33;;;;;;;10.50;7.43;;;22.50;39.80;;;;;;5023927;28;20092;-64
2022/12/07 12:05:21;;;;;;;11.73;8.23;;;22.50;39.80;;;;;;5021340;28;20051;-62
2022/12/07 12:08:11;;;;;;;12.18;8.70;;;22.50;39.70;;;;;;5023583;28;20058;-64
2022/12/07 12:11:37;;;;;;;10.82;7.90;;;22.50;39.60;;;;;;5017824;28;20069;-62
2022/12/07 12:14:44;;;;;;;11.45;8.35;;;22.50;39.60;;;;;;5014003;28;20429;-62
2022/12/07 12:17:43;;;;;;;11.65;8.27;;;22.50;39.70;;;;;;5022516;28;20049;-65
2022/12/07 12:20:44;;;;;;;10.52;7.45;;;22.60;39.70;;;;;;5025408;28;20504;-63
2022/12/07 12:23:22;;;;;;;9.95;7.35;;;22.60;39.60;;;;;;5020523;28;20056;-63
2022/12/07 12:25:52;;;;;;;12.63;7.82;;;22.60;40.20;;;;;;5024560;28;20050;-61
2022/12/07 12:28:28;;;;;;;9.85;7.10;;;22.60;39.70;;;;;;5022089;28;20045;-62
2022/12/07 12:31:27;;;;;;;12.77;7.78;;;22.60;39.80;;;;;;5019913;28;20836;-60
2022/12/07 12:33:57;;;;;;;11.00;7.55;;;22.60;39.70;;;;;;5022783;28;20146;-66
2022/12/07 12:36:45;;;;;;;9.90;7.22;;;22.70;39.90;;;;;;5027109;28;20053;-64
2022/12/07 12:39:18;;;;;;;10.80;6.78;;;22.60;39.90;;;;;;5022698;28;20105;-62
2022/12/07 12:42:06;;;;;;;11.82;6.80;;;22.70;40.00;;;;;;5022528;28;20045;-64
2022/12/07 12:44:41;;;;;;;10.15;6.80;;;22.70;40.00;;;;;;5022140;28;20041;-64
2022/12/07 12:47:42;;;;;;;8.93;6.10;;;22.70;40.00;;;;;;5020699;28;20045;-63
2022/12/07 12:50:29;;;;;;;25.35;7.03;;;22.70;40.00;;;;;;5024505;28;20529;-62
2022/12/07 12:53:02;;;;;;;9.30;6.45;;;22.70;40.00;;;;;;5022120;28;20494;-64
2022/12/07 12:56:09;;;;;;;8.32;6.20;;;22.70;40.10;;;;;;5021431;28;20136;-66
2022/12/07 12:58:39;;;;;;;8.45;5.97;;;22.70;40.20;;;;;;5011958;28;20061;-65
2022/12/07 13:01:38;;;;;;;10.23;6.45;;;22.70;40.20;;;;;;5020327;28;20048;-63
2022/12/07 13:04:25;;;;;;;10.40;5.93;;;22.60;40.00;;;;;;5020804;28;20107;-61
2022/12/07 13:06:53;;;;;;;10.23;6.57;;;22.60;40.40;;;;;;5022555;28;20052;-62
2022/12/07 13:09:29;;;;;;;9.05;5.80;;;22.60;39.90;;;;;;5025080;28;20057;-63
2022/12/07 13:15:37;;;;;;;7.75;5.78;;;22.60;40.10;;;;;;5030463;28;20052;-64
2022/12/07 13:18:36;;;;;;;8.20;6.38;;;22.60;40.10;;;;;;5033711;28;20072;-63
2022/12/07 13:21:42;;;;;;;7.70;5.85;;;22.60;40.20;;;;;;5019502;28;20060;-66
2022/12/07 13:24:13;;;;;;;10.75;6.00;;;22.60;40.30;;;;;;5032730;28;20148;-63
2022/12/07 13:26:44;;;;;;;9.57;6.28;;;22.60;40.20;;;;;;5024550;28;20053;-64